Time;durP1;ratioP1;P1;durP2;ratioP2;P2;SDS_P1;SDS_P2;PMS_P1;PMS_P2;Temp;Humidity;BMP_temperature;BMP_pressure;BME280_temperature;BME280_humidity;BME280_pressure;Samples;Min_cycle;Max_cycle;Signal;HPM_P1;HPM_P2
2023/12/12 00:02:00;;;;;;;9.32;3.20;;;;;;;;;;5094917;28;20101;-78
2023/12/12 00:04:26;;;;;;;7.53;3.17;;;;;;;;;;5077973;28;20044;-78
2023/12/12 00:06:52;;;;;;;9.43;3.35;;;;;;;;;;5094689;28;20040;-78
2023/12/12 00:09:18;;;;;;;11.02;3.80;;;;;;;;;;5094713;28;20105;-78
2023/12/12 00:11:44;;;;;;;10.45;3.60;;;;;;;;;;5094396;28;20510;-78
2023/12/12 00:14:10;;;;;;;9.25;3.70;;;;;;;;;;5094940;28;20044;-78
2023/12/12 00:16:36;;;;;;;11.57;3.28;;;;;;;;;;5077771;28;20044;-78
2023/12/12 00:19:03;;;;;;;10.30;3.83;;;;;;;;;;5077936;28;20040;-78
2023/12/12 00:21:29;;;;;;;8.43;3.15;;;;;;;;;;5094780;28;20036;-78
2023/12/12 00:23:55;;;;;;;8.70;3.28;;;;;;;;;;5078393;28;20101;-78
2023/12/12 00:26:21;;;;;;;9.32;3.47;;;;;;;;;;5094416;28;20071;-78
2023/12/12 00:28:48;;;;;;;10.32;3.55;;;;;;;;;;5094093;28;20044;-78
2023/12/12 00:31:14;;;;;;;11.25;4.13;;;;;;;;;;5077487;28;20044;-78
2023/12/12 00:33:40;;;;;;;9.13;3.85;;;;;;;;;;5078335;28;20044;-78
2023/12/12 00:36:07;;;;;;;12.27;3.95;;;;;;;;;;5094434;28;20044;-78
2023/12/12 00:38:33;;;;;;;10.40;4.03;;;;;;;;;;5093803;28;20059;-79
2023/12/12 00:40:59;;;;;;;12.77;4.00;;;;;;;;;;5093866;28;20050;-78
2023/12/12 00:43:25;;;;;;;9.32;3.95;;;;;;;;;;5094054;28;20134;-78
2023/12/12 00:45:51;;;;;;;8.77;3.95;;;;;;;;;;5093505;28;20049;-78
2023/12/12 00:48:17;;;;;;;8.13;3.95;;;;;;;;;;5093987;28;20044;-79
2023/12/12 00:50:44;;;;;;;10.55;4.05;;;;;;;;;;5075988;28;20052;-78
2023/12/12 00:53:10;;;;;;;7.45;3.80;;;;;;;;;;5093864;28;20048;-78
2023/12/12 00:55:36;;;;;;;8.00;3.70;;;;;;;;;;5077096;28;20097;-78
2023/12/12 00:58:02;;;;;;;5.57;3.53;;;;;;;;;;5093453;28;20088;-78
2023/12/12 01:00:28;;;;;;;10.20;4.78;;;;;;;;;;5093804;28;20047;-78
2023/12/12 01:02:55;;;;;;;13.45;4.80;;;;;;;;;;5093634;28;20100;-78
2023/12/12 01:05:21;;;;;;;12.98;4.43;;;;;;;;;;5076313;28;20040;-78
2023/12/12 01:07:47;;;;;;;10.20;4.53;;;;;;;;;;5076713;28;20047;-78
2023/12/12 01:10:13;;;;;;;10.45;5.00;;;;;;;;;;5093562;28;20079;-78
2023/12/12 01:12:39;;;;;;;13.63;5.63;;;;;;;;;;5093864;28;20380;-78
2023/12/12 01:15:05;;;;;;;16.00;5.70;;;;;;;;;;5094303;28;20165;-78
2023/12/12 01:17:31;;;;;;;14.70;5.40;;;;;;;;;;5094468;28;20040;-78
2023/12/12 01:19:57;;;;;;;18.13;5.82;;;;;;;;;;5093126;28;20044;-78
2023/12/12 01:22:24;;;;;;;14.00;5.35;;;;;;;;;;5093406;28;20044;-78
2023/12/12 01:24:50;;;;;;;15.27;6.32;;;;;;;;;;5093290;28;20058;-79
2023/12/12 01:27:16;;;;;;;11.93;5.97;;;;;;;;;;5093508;28;20366;-78
2023/12/12 01:29:42;;;;;;;12.05;5.65;;;;;;;;;;5093272;28;20050;-79
2023/12/12 01:32:09;;;;;;;16.88;6.80;;;;;;;;;;5093141;28;20048;-78
2023/12/12 01:34:35;;;;;;;11.93;5.15;;;;;;;;;;5093013;28;20468;-79
2023/12/12 01:37:01;;;;;;;16.13;6.07;;;;;;;;;;5093154;28;20135;-78
2023/12/12 01:39:27;;;;;;;15.60;5.65;;;;;;;;;;5093122;28;20487;-79
2023/12/12 01:41:53;;;;;;;12.02;5.78;;;;;;;;;;5092932;28;20109;-78
2023/12/12 01:44:19;;;;;;;12.40;5.85;;;;;;;;;;5093782;28;20051;-79
2023/12/12 01:46:46;;;;;;;14.82;6.78;;;;;;;;;;5092513;28;20044;-78
2023/12/12 01:49:13;;;;;;;17.98;6.97;;;;;;;;;;5092837;28;20152;-79
2023/12/12 01:51:39;;;;;;;13.80;6.78;;;;;;;;;;5059625;28;20189;-78
2023/12/12 01:54:06;;;;;;;17.48;7.20;;;;;;;;;;5076355;28;20384;-78
2023/12/12 01:56:33;;;;;;;13.45;5.70;;;;;;;;;;5092944;28;20077;-78
2023/12/12 01:58:59;;;;;;;14.68;6.82;;;;;;;;;;5093719;28;20052;-78
2023/12/12 02:01:29;;;;;;;11.50;5.93;;;;;;;;;;5092396;28;20135;-78
2023/12/12 02:03:56;;;;;;;12.18;5.93;;;;;;;;;;5092785;28;20135;-78
2023/12/12 02:06:23;;;;;;;12.00;6.53;;;;;;;;;;5092711;28;20052;-78
2023/12/12 02:08:49;;;;;;;15.65;6.70;;;;;;;;;;5092555;28;20040;-78
2023/12/12 02:11:16;;;;;;;15.30;6.18;;;;;;;;;;5075913;28;20040;-78
2023/12/12 02:13:42;;;;;;;23.27;7.72;;;;;;;;;;5092739;28;20097;-78
2023/12/12 02:16:09;;;;;;;16.27;6.97;;;;;;;;;;5092401;28;20044;-78
2023/12/12 02:18:35;;;;;;;13.75;7.00;;;;;;;;;;5092631;28;20048;-79
2023/12/12 02:21:02;;;;;;;15.85;7.28;;;;;;;;;;5092661;28;20040;-78
2023/12/12 02:23:28;;;;;;;18.13;7.38;;;;;;;;;;5076099;28;20434;-78
2023/12/12 02:25:55;;;;;;;19.05;7.22;;;;;;;;;;5092639;28;20044;-78
2023/12/12 02:28:21;;;;;;;21.27;8.18;;;;;;;;;;5092658;28;20616;-78
2023/12/12 02:30:47;;;;;;;15.98;7.93;;;;;;;;;;5075753;28;20044;-78
2023/12/12 02:33:13;;;;;;;14.55;7.18;;;;;;;;;;5075764;28;20051;-78
2023/12/12 02:35:39;;;;;;;15.63;7.50;;;;;;;;;;5059021;28;20048;-78
2023/12/12 02:38:05;;;;;;;13.77;7.30;;;;;;;;;;5093351;28;20048;-78
2023/12/12 02:40:31;;;;;;;19.65;8.50;;;;;;;;;;5092773;28;20076;-78
2023/12/12 02:42:58;;;;;;;16.42;7.18;;;;;;;;;;5092765;28;20147;-78
2023/12/12 02:45:24;;;;;;;18.42;7.80;;;;;;;;;;5075360;28;20403;-78
2023/12/12 02:47:50;;;;;;;20.17;7.57;;;;;;;;;;5093033;28;20051;-78
2023/12/12 02:50:17;;;;;;;14.27;7.55;;;;;;;;;;5092353;28;20547;-78
2023/12/12 02:52:43;;;;;;;14.23;7.13;;;;;;;;;;5093200;28;20044;-78
2023/12/12 02:55:09;;;;;;;15.27;8.05;;;;;;;;;;5092338;28;20131;-78
2023/12/12 02:57:35;;;;;;;15.30;8.88;;;;;;;;;;5092331;28;20044;-79
2023/12/12 03:00:02;;;;;;;12.70;7.68;;;;;;;;;;5092582;28;20165;-81
2023/12/12 03:02:28;;;;;;;18.08;8.35;;;;;;;;;;5092320;28;20187;-79
2023/12/12 03:04:54;;;;;;;21.15;8.32;;;;;;;;;;5092436;28;20131;-79
2023/12/12 03:07:20;;;;;;;20.05;8.70;;;;;;;;;;5075685;28;20044;-78
2023/12/12 03:09:49;;;;;;;17.60;7.68;;;;;;;;;;5092229;28;20040;-78
2023/12/12 03:12:15;;;;;;;21.13;9.63;;;;;;;;;;5092985;28;20177;-78
2023/12/12 03:14:41;;;;;;;19.30;8.40;;;;;;;;;;5095262;28;20036;-78
2023/12/12 03:17:07;;;;;;;14.07;7.95;;;;;;;;;;5078913;28;20059;-79
2023/12/12 03:19:33;;;;;;;20.15;9.35;;;;;;;;;;5096000;28;20101;-78
2023/12/12 03:21:59;;;;;;;17.85;8.95;;;;;;;;;;5095623;28;20040;-78
2023/12/12 03:24:26;;;;;;;18.05;9.27;;;;;;;;;;5095663;28;20493;-78
2023/12/12 03:26:52;;;;;;;24.40;9.60;;;;;;;;;;5095551;28;20472;-79
2023/12/12 03:29:18;;;;;;;22.13;9.73;;;;;;;;;;5079272;28;20460;-78
2023/12/12 03:31:44;;;;;;;18.65;10.23;;;;;;;;;;5095450;28;20442;-78
2023/12/12 03:34:10;;;;;;;18.25;9.10;;;;;;;;;;5095376;28;20557;-82
2023/12/12 03:36:36;;;;;;;22.77;10.35;;;;;;;;;;5095659;28;20387;-79
2023/12/12 03:39:02;;;;;;;23.85;10.80;;;;;;;;;;5095222;28;20476;-78
2023/12/12 03:41:29;;;;;;;24.42;12.18;;;;;;;;;;5078414;28;20438;-78
2023/12/12 03:43:55;;;;;;;25.50;11.68;;;;;;;;;;5078813;28;20044;-78
2023/12/12 03:46:21;;;;;;;21.02;12.50;;;;;;;;;;5094956;28;20116;-79
2023/12/12 03:48:47;;;;;;;22.05;12.20;;;;;;;;;;5094821;28;20052;-78
2023/12/12 03:51:14;;;;;;;22.55;11.43;;;;;;;;;;5079159;28;20040;-78
2023/12/12 03:53:40;;;;;;;27.95;12.18;;;;;;;;;;5095065;28;20050;-78
2023/12/12 03:56:06;;;;;;;22.50;12.55;;;;;;;;;;5078529;28;20055;-78
2023/12/12 03:58:32;;;;;;;20.90;12.00;;;;;;;;;;5094872;28;20052;-78
2023/12/12 04:00:58;;;;;;;28.60;12.27;;;;;;;;;;5094604;28;20476;-78
2023/12/12 04:03:25;;;;;;;20.77;12.80;;;;;;;;;;5077969;28;20089;-79
2023/12/12 04:05:51;;;;;;;22.52;12.50;;;;;;;;;;5078670;28;20121;-79
2023/12/12 04:08:17;;;;;;;34.90;14.35;;;;;;;;;;5061167;28;20040;-78
2023/12/12 04:10:43;;;;;;;26.48;13.43;;;;;;;;;;5094684;28;20506;-80
2023/12/12 04:13:10;;;;;;;26.80;13.23;;;;;;;;;;5095429;28;20139;-78
2023/12/12 04:15:36;;;;;;;30.25;14.20;;;;;;;;;;5094354;28;20484;-78
2023/12/12 04:18:02;;;;;;;22.50;11.95;;;;;;;;;;5095392;28;20052;-78
2023/12/12 04:20:28;;;;;;;26.98;12.15;;;;;;;;;;5094200;28;20048;-78
2023/12/12 04:22:54;;;;;;;27.27;12.80;;;;;;;;;;5094393;28;20051;-78
2023/12/12 04:25:20;;;;;;;27.38;12.27;;;;;;;;;;5093783;28;20130;-78
2023/12/12 04:27:46;;;;;;;27.33;14.52;;;;;;;;;;5077364;28;20484;-78
2023/12/12 04:30:12;;;;;;;28.20;13.43;;;;;;;;;;5077588;28;20152;-78
2023/12/12 04:32:38;;;;;;;23.92;13.02;;;;;;;;;;5094220;28;20132;-78
2023/12/12 04:35:08;;;;;;;24.75;13.18;;;;;;;;;;5094959;28;20135;-78
2023/12/12 04:37:34;;;;;;;23.90;13.75;;;;;;;;;;5094221;28;20052;-78
2023/12/12 04:40:01;;;;;;;32.85;15.02;;;;;;;;;;5094976;28;20060;-78
2023/12/12 04:42:27;;;;;;;32.65;15.43;;;;;;;;;;5093995;28;20047;-78
2023/12/12 04:44:53;;;;;;;32.67;14.75;;;;;;;;;;5078537;28;20468;-78
2023/12/12 04:47:19;;;;;;;25.92;13.55;;;;;;;;;;5097703;28;20105;-78
2023/12/12 04:49:45;;;;;;;33.88;14.40;;;;;;;;;;5098213;28;20036;-78
2023/12/12 04:52:11;;;;;;;33.42;15.00;;;;;;;;;;5097249;28;20075;-78
2023/12/12 04:54:37;;;;;;;33.05;15.15;;;;;;;;;;5097602;28;20423;-79
2023/12/12 04:57:03;;;;;;;31.42;14.70;;;;;;;;;;5096989;28;20500;-78
2023/12/12 04:59:29;;;;;;;28.63;14.93;;;;;;;;;;5081156;28;20083;-79
2023/12/12 05:01:55;;;;;;;28.42;13.85;;;;;;;;;;5097127;28;20051;-78
2023/12/12 05:04:21;;;;;;;29.25;14.13;;;;;;;;;;5097076;28;20118;-79
2023/12/12 05:06:48;;;;;;;24.98;14.15;;;;;;;;;;5080216;28;20114;-78
2023/12/12 05:09:14;;;;;;;19.30;12.55;;;;;;;;;;5097539;28;20044;-78
2023/12/12 05:11:40;;;;;;;26.20;14.05;;;;;;;;;;5097820;28;20058;-79
2023/12/12 05:14:07;;;;;;;23.30;12.77;;;;;;;;;;5096681;28;20471;-78
2023/12/12 05:16:33;;;;;;;28.23;13.65;;;;;;;;;;5096904;28;20052;-78
2023/12/12 05:18:59;;;;;;;24.90;13.23;;;;;;;;;;5096700;28;20441;-79
2023/12/12 05:21:26;;;;;;;24.23;12.65;;;;;;;;;;5096975;28;20114;-79
2023/12/12 05:23:52;;;;;;;25.98;13.63;;;;;;;;;;5096715;28;20134;-78
2023/12/12 05:26:18;;;;;;;26.02;12.88;;;;;;;;;;5096789;28;20418;-78
2023/12/12 05:28:45;;;;;;;30.75;14.90;;;;;;;;;;5097211;28;20050;-78
2023/12/12 05:31:11;;;;;;;26.73;14.40;;;;;;;;;;5096664;28;20391;-78
2023/12/12 05:33:37;;;;;;;27.83;15.18;;;;;;;;;;5063231;28;20054;-78
2023/12/12 05:36:04;;;;;;;26.55;15.13;;;;;;;;;;5079787;28;20043;-79
2023/12/12 05:38:30;;;;;;;23.33;14.18;;;;;;;;;;5096553;28;20130;-79
2023/12/12 05:40:56;;;;;;;32.08;16.63;;;;;;;;;;5096192;28;20047;-78
2023/12/12 05:43:22;;;;;;;37.88;17.83;;;;;;;;;;5079331;28;20471;-78
2023/12/12 05:45:49;;;;;;;32.88;16.50;;;;;;;;;;5096156;28;20052;-79
2023/12/12 05:48:15;;;;;;;35.10;18.13;;;;;;;;;;5096509;28;20044;-78
2023/12/12 05:50:41;;;;;;;34.03;18.38;;;;;;;;;;5079239;28;20043;-79
2023/12/12 05:53:07;;;;;;;40.97;20.20;;;;;;;;;;5097194;28;20039;-79
2023/12/12 05:55:33;;;;;;;38.13;20.10;;;;;;;;;;5096595;28;20066;-79
2023/12/12 05:57:59;;;;;;;42.55;21.48;;;;;;;;;;5096300;28;20051;-79
2023/12/12 06:00:27;;;;;;;41.33;21.20;;;;;;;;;;5096542;28;20060;-79
2023/12/12 06:02:54;;;;;;;45.58;22.73;;;;;;;;;;5096537;28;20043;-78
2023/12/12 06:05:20;;;;;;;45.63;23.95;;;;;;;;;;5079453;28;20051;-79
2023/12/12 06:07:46;;;;;;;50.03;24.13;;;;;;;;;;5079600;28;20051;-78
2023/12/12 06:10:12;;;;;;;43.72;24.42;;;;;;;;;;5096479;28;20044;-79
2023/12/12 06:12:38;;;;;;;52.85;24.83;;;;;;;;;;5079305;28;20139;-79
2023/12/12 06:15:08;;;;;;;48.40;25.20;;;;;;;;;;5096981;28;20040;-78
2023/12/12 06:17:38;;;;;;;53.28;27.15;;;;;;;;;;5080044;28;20442;-78
2023/12/12 06:20:04;;;;;;;52.10;25.38;;;;;;;;;;5079451;28;20048;-79
2023/12/12 06:22:30;;;;;;;47.72;23.88;;;;;;;;;;5096862;28;20060;-79
2023/12/12 06:24:56;;;;;;;52.97;26.83;;;;;;;;;;5080031;28;20102;-78
2023/12/12 06:27:23;;;;;;;46.50;25.95;;;;;;;;;;5079140;28;20487;-78
2023/12/12 06:29:49;;;;;;;57.70;27.35;;;;;;;;;;5079220;28;20039;-78
2023/12/12 06:32:16;;;;;;;57.17;28.58;;;;;;;;;;5078983;28;20115;-79
2023/12/12 06:34:45;;;;;;;51.05;26.85;;;;;;;;;;5095521;28;20082;-79
2023/12/12 06:37:11;;;;;;;56.33;28.13;;;;;;;;;;5096252;28;20043;-78
2023/12/12 06:39:37;;;;;;;55.63;29.08;;;;;;;;;;5095875;28;20044;-78
2023/12/12 06:42:06;;;;;;;52.08;27.70;;;;;;;;;;5078804;28;20048;-79
2023/12/12 06:44:33;;;;;;;50.90;27.23;;;;;;;;;;5079040;28;20467;-79
2023/12/12 06:46:59;;;;;;;55.85;29.48;;;;;;;;;;5095735;28;20100;-79
2023/12/12 06:49:25;;;;;;;58.40;30.17;;;;;;;;;;5082417;28;20476;-79
2023/12/12 06:51:51;;;;;;;61.45;31.55;;;;;;;;;;5083667;28;20491;-79
2023/12/12 06:54:17;;;;;;;56.30;29.27;;;;;;;;;;5100238;28;20463;-79
2023/12/12 06:56:43;;;;;;;51.95;29.65;;;;;;;;;;5099622;28;20132;-79
2023/12/12 06:59:09;;;;;;;58.92;31.40;;;;;;;;;;5082666;28;20051;-79
2023/12/12 07:01:36;;;;;;;78.07;33.63;;;;;;;;;;5099531;28;20440;-79
2023/12/12 07:04:02;;;;;;;65.07;31.67;;;;;;;;;;5099112;28;20054;-78
2023/12/12 07:06:28;;;;;;;52.92;29.20;;;;;;;;;;5099619;28;20055;-78
2023/12/12 07:08:54;;;;;;;60.33;29.73;;;;;;;;;;5099114;28;20047;-79
2023/12/12 07:11:21;;;;;;;61.00;31.58;;;;;;;;;;5099342;28;20403;-79
2023/12/12 07:13:47;;;;;;;56.50;31.13;;;;;;;;;;5081972;28;20055;-79
2023/12/12 07:16:13;;;;;;;51.22;29.38;;;;;;;;;;5098888;28;20047;-79
2023/12/12 07:18:39;;;;;;;58.67;30.10;;;;;;;;;;5082302;28;20079;-79
2023/12/12 07:21:06;;;;;;;60.15;32.72;;;;;;;;;;5098758;28;20122;-78
2023/12/12 07:23:32;;;;;;;49.60;29.05;;;;;;;;;;5082502;28;20059;-78
2023/12/12 07:25:59;;;;;;;52.17;31.88;;;;;;;;;;5098683;28;20155;-78
2023/12/12 07:28:25;;;;;;;63.72;32.13;;;;;;;;;;5098674;28;20396;-78
2023/12/12 07:30:53;;;;;;;49.38;31.70;;;;;;;;;;5098854;28;20055;-78
2023/12/12 07:33:19;;;;;;;48.33;30.77;;;;;;;;;;5098879;28;20051;-78
2023/12/12 07:35:46;;;;;;;50.70;31.13;;;;;;;;;;5098764;28;20050;-78
2023/12/12 07:38:12;;;;;;;55.13;30.92;;;;;;;;;;5117329;28;20039;-79
2023/12/12 07:40:38;;;;;;;57.63;33.35;;;;;;;;;;5098708;28;20040;-78
2023/12/12 07:43:04;;;;;;;49.03;30.92;;;;;;;;;;5098691;28;20096;-78
2023/12/12 07:45:30;;;;;;;56.00;34.53;;;;;;;;;;5098278;28;20061;-78
2023/12/12 07:47:56;;;;;;;47.42;31.35;;;;;;;;;;5098445;28;20044;-78
2023/12/12 07:50:22;;;;;;;52.17;32.17;;;;;;;;;;5116481;28;20044;-78
2023/12/12 07:52:49;;;;;;;48.30;31.92;;;;;;;;;;5116503;28;20044;-79
2023/12/12 07:55:15;;;;;;;52.08;35.22;;;;;;;;;;5081543;28;20063;-78
2023/12/12 07:57:42;;;;;;;50.55;32.42;;;;;;;;;;5099282;28;20376;-78
2023/12/12 08:00:10;;;;;;;39.03;27.92;;;;;;;;;;5080920;28;20130;-78
2023/12/12 08:02:36;;;;;;;46.67;31.73;;;;;;;;;;5116268;28;20495;-78
2023/12/12 08:05:03;;;;;;;50.63;30.77;;;;;;;;;;5081398;28;20508;-78
2023/12/12 08:07:29;;;;;;;45.00;31.38;;;;;;;;;;5098185;28;20048;-78
2023/12/12 08:09:55;;;;;;;51.65;32.70;;;;;;;;;;5098140;28;20047;-78
2023/12/12 08:12:23;;;;;;;44.80;33.88;;;;;;;;;;5098158;28;20047;-78
2023/12/12 08:14:49;;;;;;;61.10;37.60;;;;;;;;;;5081232;28;20043;-78
2023/12/12 08:17:15;;;;;;;57.30;34.85;;;;;;;;;;5098913;28;20051;-78
2023/12/12 08:19:42;;;;;;;43.60;32.08;;;;;;;;;;5098252;28;20048;-78
2023/12/12 08:22:08;;;;;;;51.08;34.40;;;;;;;;;;5097877;28;20480;-78
2023/12/12 08:24:34;;;;;;;49.97;31.95;;;;;;;;;;5097902;28;20051;-78
2023/12/12 08:27:00;;;;;;;54.30;34.45;;;;;;;;;;5065223;28;20082;-78
2023/12/12 08:29:26;;;;;;;50.30;34.97;;;;;;;;;;5097471;28;20118;-79
2023/12/12 08:31:52;;;;;;;58.17;34.60;;;;;;;;;;5097806;28;20043;-79
2023/12/12 08:34:18;;;;;;;49.92;33.78;;;;;;;;;;5081643;28;20054;-78
2023/12/12 08:36:44;;;;;;;74.68;36.95;;;;;;;;;;5098449;28;20043;-78
2023/12/12 08:39:12;;;;;;;74.63;38.15;;;;;;;;;;5097637;28;20043;-79
2023/12/12 08:41:39;;;;;;;170.43;44.10;;;;;;;;;;5097267;28;20048;-78
2023/12/12 08:44:05;;;;;;;114.78;40.72;;;;;;;;;;5097218;28;20131;-78
2023/12/12 08:46:31;;;;;;;257.80;44.58;;;;;;;;;;5096791;28;20058;-78
2023/12/12 08:48:58;;;;;;;256.75;43.10;;;;;;;;;;5097125;28;20440;-79
2023/12/12 08:51:24;;;;;;;179.35;40.97;;;;;;;;;;5080583;28;20047;-78
2023/12/12 08:53:51;;;;;;;189.88;39.90;;;;;;;;;;5097287;28;20052;-78
2023/12/12 08:56:17;;;;;;;141.48;36.95;;;;;;;;;;5097282;28;20184;-79
2023/12/12 08:58:44;;;;;;;143.68;36.40;;;;;;;;;;5097245;28;20368;-79
2023/12/12 09:01:10;;;;;;;142.18;35.60;;;;;;;;;;5097418;28;20486;-78
2023/12/12 09:03:36;;;;;;;184.75;37.20;;;;;;;;;;5080993;28;20101;-78
2023/12/12 09:06:03;;;;;;;175.82;34.38;;;;;;;;;;5097322;28;20040;-79
2023/12/12 09:08:30;;;;;;;191.27;35.17;;;;;;;;;;5096570;28;20082;-78
2023/12/12 09:10:56;;;;;;;145.82;34.60;;;;;;;;;;5079249;28;20061;-78
2023/12/12 09:13:22;;;;;;;198.50;37.85;;;;;;;;;;5097026;28;20049;-78
2023/12/12 09:15:48;;;;;;;160.80;34.33;;;;;;;;;;5096911;28;20035;-78
2023/12/12 09:18:15;;;;;;;222.23;37.58;;;;;;;;;;5097136;28;20048;-78
2023/12/12 09:20:41;;;;;;;206.10;35.30;;;;;;;;;;5096807;28;20039;-78
2023/12/12 09:23:07;;;;;;;185.80;35.70;;;;;;;;;;5079968;28;20048;-78
2023/12/12 09:25:34;;;;;;;261.52;43.00;;;;;;;;;;5096540;28;20490;-78
2023/12/12 09:28:00;;;;;;;163.05;32.47;;;;;;;;;;5096572;28;20503;-78
2023/12/12 09:30:26;;;;;;;122.55;33.00;;;;;;;;;;5096960;28;20111;-78
2023/12/12 09:32:52;;;;;;;150.63;32.60;;;;;;;;;;5079800;28;20052;-78
2023/12/12 09:35:18;;;;;;;147.90;32.92;;;;;;;;;;5096592;28;20048;-78
2023/12/12 09:37:44;;;;;;;152.55;37.17;;;;;;;;;;5096654;28;20387;-78
2023/12/12 09:40:11;;;;;;;153.10;31.42;;;;;;;;;;5080475;28;20112;-79
2023/12/12 09:42:37;;;;;;;175.20;32.80;;;;;;;;;;5096530;28;20044;-78
2023/12/12 09:45:04;;;;;;;131.90;35.90;;;;;;;;;;5096222;28;20105;-78
2023/12/12 09:47:34;;;;;;;144.98;34.22;;;;;;;;;;5114359;28;20138;-79
2023/12/12 09:50:00;;;;;;;122.65;35.85;;;;;;;;;;5097225;28;20130;-78
2023/12/12 09:52:29;;;;;;;175.77;35.13;;;;;;;;;;5096336;28;20042;-80
2023/12/12 09:54:57;;;;;;;239.48;41.17;;;;;;;;;;5097152;28;20475;-78
2023/12/12 09:57:24;;;;;;;195.07;35.80;;;;;;;;;;5096319;28;20054;-78
2023/12/12 09:59:50;;;;;;;120.82;33.03;;;;;;;;;;5096539;28;20099;-78
2023/12/12 10:02:22;;;;;;;199.30;39.97;;;;;;;;;;5096281;28;20047;-78
2023/12/12 10:04:49;;;;;;;99.60;31.80;;;;;;;;;;5079715;28;20059;-79
2023/12/12 10:07:17;;;;;;;111.88;32.00;;;;;;;;;;5096941;28;20063;-79
2023/12/12 10:09:44;;;;;;;138.07;35.22;;;;;;;;;;5095818;28;20047;-78
2023/12/12 10:12:10;;;;;;;91.93;32.92;;;;;;;;;;5096149;28;20047;-79
2023/12/12 10:14:37;;;;;;;69.47;33.00;;;;;;;;;;5096191;28;20054;-78
2023/12/12 10:17:04;;;;;;;113.22;33.17;;;;;;;;;;5079197;28;20043;-79
2023/12/12 10:19:31;;;;;;;219.88;42.80;;;;;;;;;;5096776;28;20364;-78
2023/12/12 10:21:59;;;;;;;142.70;36.45;;;;;;;;;;5095995;28;20047;-78
2023/12/12 10:24:25;;;;;;;111.32;34.25;;;;;;;;;;5118256;28;20055;-78
2023/12/12 10:26:52;;;;;;;112.72;29.00;;;;;;;;;;5100471;28;20083;-78
2023/12/12 10:29:20;;;;;;;112.68;35.45;;;;;;;;;;5118132;28;20079;-78
2023/12/12 10:31:50;;;;;;;101.53;34.58;;;;;;;;;;5083412;28;20051;-79
2023/12/12 10:34:19;;;;;;;201.93;42.65;;;;;;;;;;5083217;28;20063;-77
2023/12/12 10:36:49;;;;;;;113.35;35.47;;;;;;;;;;5083227;28;20050;-78
2023/12/12 10:39:15;;;;;;;83.53;36.13;;;;;;;;;;5083039;28;20079;-79
2023/12/12 10:41:51;;;;;;;77.85;36.05;;;;;;;;;;5099837;28;20050;-78
2023/12/12 10:44:19;;;;;;;88.40;32.80;;;;;;;;;;5100188;28;20456;-78
2023/12/12 10:46:47;;;;;;;92.55;30.75;;;;;;;;;;5096003;28;20056;-78
2023/12/12 10:49:14;;;;;;;103.45;35.83;;;;;;;;;;5096939;28;20048;-78
2023/12/12 10:51:41;;;;;;;68.07;33.55;;;;;;;;;;5096564;28;20509;-78
2023/12/12 10:54:08;;;;;;;91.20;36.47;;;;;;;;;;5096257;28;20070;-78
2023/12/12 10:56:35;;;;;;;64.65;33.70;;;;;;;;;;5095973;28;20361;-78
2023/12/12 10:59:03;;;;;;;146.50;39.67;;;;;;;;;;5096157;28;20059;-78
2023/12/12 11:01:29;;;;;;;48.78;32.03;;;;;;;;;;5096701;28;20483;-78
2023/12/12 11:03:58;;;;;;;75.15;27.15;;;;;;;;;;5095796;28;20503;-78
2023/12/12 11:06:24;;;;;;;69.32;34.22;;;;;;;;;;5095958;28;20052;-77
2023/12/12 11:08:52;;;;;;;57.53;33.97;;;;;;;;;;5095956;28;20101;-78
2023/12/12 11:11:19;;;;;;;57.42;32.00;;;;;;;;;;5096248;28;20146;-78
2023/12/12 11:13:47;;;;;;;64.63;33.55;;;;;;;;;;5096659;28;20054;-78
2023/12/12 11:16:13;;;;;;;69.03;33.97;;;;;;;;;;5096627;28;20435;-78
2023/12/12 11:18:42;;;;;;;75.57;35.40;;;;;;;;;;5079964;28;20129;-77
2023/12/12 11:21:08;;;;;;;53.92;24.70;;;;;;;;;;5097065;28;20134;-78
2023/12/12 11:23:52;;;;;;;73.68;35.92;;;;;;;;;;5078692;28;20055;-78
2023/12/12 11:26:19;;;;;;;115.70;43.55;;;;;;;;;;5095994;28;20101;-78
2023/12/12 11:28:45;;;;;;;87.35;42.28;;;;;;;;;;5095652;28;20048;-78
2023/12/12 11:31:20;;;;;;;81.82;38.97;;;;;;;;;;5095527;28;20090;-78
2023/12/12 11:34:05;;;;;;;77.25;40.20;;;;;;;;;;5095380;28;20108;-78
2023/12/12 11:36:50;;;;;;;70.97;37.47;;;;;;;;;;5096230;28;20087;-79
2023/12/12 11:39:37;;;;;;;108.47;38.28;;;;;;;;;;5078499;28;20051;-79
2023/12/12 11:42:05;;;;;;;62.95;34.28;;;;;;;;;;5095352;28;20051;-79
2023/12/12 11:44:42;;;;;;;74.95;36.38;;;;;;;;;;5095203;28;20051;-78
2023/12/12 11:47:16;;;;;;;58.97;34.85;;;;;;;;;;5094973;28;20109;-78
2023/12/12 11:49:44;;;;;;;69.78;35.65;;;;;;;;;;5078185;28;20468;-78
2023/12/12 11:52:10;;;;;;;66.18;35.35;;;;;;;;;;5095628;28;20153;-79
2023/12/12 11:54:38;;;;;;;83.05;37.75;;;;;;;;;;5095244;28;20080;-78
2023/12/12 11:57:04;;;;;;;68.93;32.92;;;;;;;;;;5094981;28;20090;-79
2023/12/12 11:59:33;;;;;;;63.25;31.45;;;;;;;;;;5094897;28;20051;-79
2023/12/12 12:02:00;;;;;;;68.25;34.55;;;;;;;;;;5094855;28;20051;-79
2023/12/12 12:04:26;;;;;;;66.30;33.10;;;;;;;;;;5094887;28;20079;-79
2023/12/12 12:06:53;;;;;;;65.28;34.65;;;;;;;;;;5094650;28;20533;-79
2023/12/12 12:09:19;;;;;;;63.60;35.00;;;;;;;;;;5094487;28;20044;-79
2023/12/12 12:11:51;;;;;;;66.75;35.47;;;;;;;;;;5094639;28;20545;-79
2023/12/12 12:14:21;;;;;;;101.20;39.58;;;;;;;;;;5094756;28;20080;-79
2023/12/12 12:16:50;;;;;;;77.53;37.72;;;;;;;;;;5094532;28;20044;-79
2023/12/12 12:19:27;;;;;;;66.60;36.25;;;;;;;;;;5094546;28;20060;-79
2023/12/12 12:21:53;;;;;;;75.38;37.00;;;;;;;;;;5094553;28;20131;-79
2023/12/12 12:24:19;;;;;;;71.90;33.00;;;;;;;;;;5078419;28;20051;-79
2023/12/12 12:26:46;;;;;;;74.03;37.10;;;;;;;;;;5077386;28;20476;-78
2023/12/12 12:29:12;;;;;;;72.05;36.67;;;;;;;;;;5094127;28;20400;-78
2023/12/12 12:31:38;;;;;;;79.80;36.33;;;;;;;;;;5095189;28;20055;-79
2023/12/12 12:34:24;;;;;;;79.78;38.08;;;;;;;;;;5077361;28;20048;-79
2023/12/12 12:36:52;;;;;;;78.38;37.65;;;;;;;;;;5094971;28;20573;-78
2023/12/12 12:39:18;;;;;;;81.22;38.90;;;;;;;;;;5077274;28;20051;-79
2023/12/12 12:41:46;;;;;;;77.63;38.67;;;;;;;;;;5076896;28;20044;-79
2023/12/12 12:44:13;;;;;;;86.57;39.72;;;;;;;;;;5094057;28;20055;-79
2023/12/12 12:46:47;;;;;;;76.68;38.92;;;;;;;;;;5075876;28;20110;-79
2023/12/12 12:49:14;;;;;;;84.53;42.28;;;;;;;;;;5093491;28;20090;-79
2023/12/12 12:51:42;;;;;;;86.65;42.70;;;;;;;;;;5077211;28;20404;-79
2023/12/12 12:54:08;;;;;;;89.30;43.47;;;;;;;;;;5094242;28;20557;-79
2023/12/12 12:56:34;;;;;;;96.60;43.60;;;;;;;;;;5093642;28;20052;-78
2023/12/12 12:59:00;;;;;;;87.65;42.40;;;;;;;;;;5093891;28;20055;-79
2023/12/12 13:01:26;;;;;;;98.20;46.70;;;;;;;;;;5094353;28;20132;-78
2023/12/12 13:03:52;;;;;;;95.65;46.38;;;;;;;;;;5093558;28;20052;-79
2023/12/12 13:06:18;;;;;;;92.80;47.42;;;;;;;;;;5093572;28;20044;-79
2023/12/12 13:08:45;;;;;;;100.93;46.13;;;;;;;;;;5076256;28;20047;-78
2023/12/12 13:11:12;;;;;;;89.88;44.70;;;;;;;;;;5093418;28;20493;-79
2023/12/12 13:13:38;;;;;;;85.13;45.15;;;;;;;;;;5093869;28;20354;-79
2023/12/12 13:16:05;;;;;;;88.05;42.35;;;;;;;;;;5093424;28;20135;-79
2023/12/12 13:18:31;;;;;;;101.68;45.88;;;;;;;;;;5093132;28;20502;-79
2023/12/12 13:20:57;;;;;;;98.60;46.50;;;;;;;;;;5094010;28;20040;-78
2023/12/12 13:23:23;;;;;;;88.00;45.80;;;;;;;;;;5076247;28;20047;-79
2023/12/12 13:25:50;;;;;;;97.20;47.70;;;;;;;;;;5075883;28;20051;-81
2023/12/12 13:28:16;;;;;;;92.00;46.75;;;;;;;;;;5076222;28;20043;-79
2023/12/12 13:30:42;;;;;;;92.38;46.03;;;;;;;;;;5076184;28;20051;-79
2023/12/12 13:33:09;;;;;;;101.32;47.25;;;;;;;;;;5076244;28;20135;-80
2023/12/12 13:35:36;;;;;;;95.25;46.85;;;;;;;;;;5076601;28;20147;-79
2023/12/12 13:38:02;;;;;;;88.10;43.63;;;;;;;;;;5092882;28;20142;-79
2023/12/12 13:40:28;;;;;;;87.03;41.22;;;;;;;;;;5093084;28;20048;-78
2023/12/12 13:42:55;;;;;;;84.43;40.78;;;;;;;;;;5092899;28;20048;-78
2023/12/12 13:45:21;;;;;;;88.88;42.58;;;;;;;;;;5092608;28;20056;-78
2023/12/12 13:47:47;;;;;;;90.18;42.10;;;;;;;;;;5092794;28;20529;-78
2023/12/12 13:50:13;;;;;;;88.00;43.38;;;;;;;;;;5092753;28;20056;-79
2023/12/12 13:52:39;;;;;;;81.90;42.35;;;;;;;;;;5093853;28;20135;-80
2023/12/12 13:55:06;;;;;;;86.78;41.30;;;;;;;;;;5092613;28;20488;-79
2023/12/12 13:57:32;;;;;;;85.90;42.40;;;;;;;;;;5091932;28;20048;-79
2023/12/12 13:59:58;;;;;;;84.00;41.65;;;;;;;;;;5092633;28;20397;-79
2023/12/12 14:02:24;;;;;;;86.32;40.38;;;;;;;;;;5092383;28;20054;-78
2023/12/12 14:04:50;;;;;;;85.00;41.83;;;;;;;;;;5093171;28;20431;-78
2023/12/12 14:07:18;;;;;;;80.18;36.75;;;;;;;;;;5092524;28;20051;-78
2023/12/12 14:09:44;;;;;;;79.90;41.13;;;;;;;;;;5092348;28;20052;-79
2023/12/12 14:12:11;;;;;;;84.32;41.38;;;;;;;;;;5092583;28;20403;-78
2023/12/12 14:14:37;;;;;;;86.25;41.88;;;;;;;;;;5093443;28;20044;-78
2023/12/12 14:17:03;;;;;;;90.20;42.75;;;;;;;;;;5092525;28;20434;-78